Wolfe Island, Canada
Current Conditions -  °F | °C
As of 2:00 PM on Thursday 23 Oct 2014 (Local Time) from CYGK Reporting Station
Broken Clouds Broken Clouds  
Wind Chill: 57°   Ceiling: 5500
Heat Index: 57°   Visibility: 15mi
Dew Point: 45°   Wind: 20mph
Humidity: 63%   Direction: 360°N
Pressure: 29.99"   Gusts: 25mph
Location:  44.19°N, 76.44°W
Report Text: CYGK 231800Z 36017G22KT 15SM SCT035 BKN055 14/07 A2999 RMK SC4SC2 SLP157
Loading
Personal Weather Stations






























Interactive Weather Map
Tropical Storm Tracking
New forecast layout! Learn more

10-Day Weather Forecast

Advertisements
Track Severe Weather on mobile